createdAt,value
2023-03-18T00:02:09.825Z,100405.47
2023-03-18T00:04:37.092Z,100407.31
2023-03-18T00:07:03.586Z,100403.00
2023-03-18T00:09:29.998Z,100409.63
2023-03-18T00:11:56.837Z,100403.63
2023-03-18T00:14:24.083Z,100409.72
2023-03-18T00:16:50.646Z,100399.75
2023-03-18T00:19:17.718Z,100399.63
2023-03-18T00:21:44.555Z,100402.78
2023-03-18T00:24:12.198Z,100395.50
2023-03-18T00:26:38.567Z,100406.44
2023-03-18T00:29:05.207Z,100399.63
2023-03-18T00:31:31.840Z,100402.06
2023-03-18T00:33:58.724Z,100414.88
2023-03-18T00:36:27.732Z,100413.44
2023-03-18T00:38:57.635Z,100414.16
2023-03-18T00:41:26.081Z,100411.59
2023-03-18T00:43:53.826Z,100426.09
2023-03-18T00:46:29.533Z,100424.50
2023-03-18T00:49:00.261Z,100421.81
2023-03-18T00:51:31.364Z,100425.00
2023-03-18T00:54:00.512Z,100410.09
2023-03-18T00:56:29.354Z,100425.47
2023-03-18T00:58:57.099Z,100426.47
2023-03-18T01:01:24.941Z,100419.16
2023-03-18T01:03:51.507Z,100415.13
2023-03-18T01:06:22.487Z,100405.25
2023-03-18T01:08:50.097Z,100412.44
2023-03-18T01:11:17.984Z,100412.81
2023-03-18T01:13:45.909Z,100415.16
2023-03-18T01:16:13.204Z,100415.16
2023-03-18T01:18:41.416Z,100400.88
2023-03-18T01:21:09.352Z,100410.03
2023-03-18T01:23:40.976Z,100402.34
2023-03-18T01:26:07.751Z,100407.22
2023-03-18T01:28:35.043Z,100411.84
2023-03-18T01:31:03.221Z,100417.84
2023-03-18T01:33:29.802Z,100419.44
2023-03-18T01:35:59.676Z,100420.06
2023-03-18T01:38:32.080Z,100415.53
2023-03-18T01:41:07.676Z,100408.22
2023-03-18T01:43:36.460Z,100416.00
2023-03-18T01:46:30.221Z,100409.06
2023-03-18T01:48:58.825Z,100402.88
2023-03-18T01:51:26.880Z,100413.69
2023-03-18T01:53:54.386Z,100408.44
2023-03-18T01:56:22.027Z,100412.84
2023-03-18T01:58:52.186Z,100421.38
2023-03-18T02:01:28.719Z,100421.47
2023-03-18T02:03:56.618Z,100422.31
2023-03-18T02:06:24.715Z,100431.09
2023-03-18T02:09:00.288Z,100438.31
2023-03-18T02:11:28.593Z,100436.63
2023-03-18T02:14:00.380Z,100433.41
2023-03-18T02:16:34.175Z,100437.81
2023-03-18T02:19:12.627Z,100426.09
2023-03-18T02:21:52.737Z,100409.16
2023-03-18T02:24:36.569Z,100414.00
2023-03-18T02:27:21.317Z,100425.13
2023-03-18T02:29:49.525Z,100415.50
2023-03-18T02:32:21.281Z,100414.53
2023-03-18T02:34:48.988Z,100420.84
2023-03-18T02:37:15.495Z,100410.75
2023-03-18T02:39:42.958Z,100415.25
2023-03-18T02:42:14.148Z,100419.63
2023-03-18T02:44:47.515Z,100425.00
2023-03-18T02:47:32.095Z,100431.72
2023-03-18T02:49:59.390Z,100420.47
2023-03-18T02:52:26.403Z,100422.84
2023-03-18T02:54:53.308Z,100420.53
2023-03-18T02:57:19.710Z,100418.44
2023-03-18T02:59:46.921Z,100423.09
2023-03-18T03:02:13.457Z,100420.06
2023-03-18T03:04:39.920Z,100433.94
2023-03-18T03:07:06.359Z,100429.31
2023-03-18T03:09:41.696Z,100430.31
2023-03-18T03:12:09.066Z,100430.91
2023-03-18T03:14:40.662Z,100436.03
2023-03-18T03:17:07.298Z,100437.38
2023-03-18T03:19:33.647Z,100452.59
2023-03-18T03:22:01.513Z,100445.66
2023-03-18T03:24:27.925Z,100444.56
2023-03-18T03:26:54.582Z,100448.34
2023-03-18T03:29:21.616Z,100448.19
2023-03-18T03:31:49.305Z,100442.84
2023-03-18T03:34:15.730Z,100442.34
2023-03-18T03:36:43.002Z,100437.13
2023-03-18T03:39:09.326Z,100447.22
2023-03-18T03:41:35.680Z,100451.38
2023-03-18T03:44:02.001Z,100448.94
2023-03-18T03:46:28.740Z,100448.69
2023-03-18T03:48:55.180Z,100444.06
2023-03-18T03:51:22.086Z,100447.19
2023-03-18T03:53:48.568Z,100447.09
2023-03-18T03:56:15.478Z,100455.03
2023-03-18T03:58:42.040Z,100456.22
2023-03-18T04:01:08.639Z,100456.97
2023-03-18T04:03:35.413Z,100460.47
2023-03-18T04:06:06.557Z,100455.50
2023-03-18T04:08:35.075Z,100463.66
2023-03-18T04:11:04.434Z,100466.22
2023-03-18T04:13:31.167Z,100475.59
2023-03-18T04:15:57.555Z,100471.97
2023-03-18T04:18:23.941Z,100480.72
2023-03-18T04:20:50.291Z,100481.59
2023-03-18T04:23:27.354Z,100476.44
2023-03-18T04:25:53.675Z,100475.13
2023-03-18T04:28:20.063Z,100478.56
2023-03-18T04:30:48.113Z,100485.13
2023-03-18T04:33:17.846Z,100483.03
2023-03-18T04:35:44.353Z,100490.97
2023-03-18T04:38:13.504Z,100489.97
2023-03-18T04:40:40.822Z,100483.78
2023-03-18T04:43:07.125Z,100486.59
2023-03-18T04:45:33.995Z,100485.97
2023-03-18T04:48:01.855Z,100486.47
2023-03-18T04:50:32.478Z,100492.06
2023-03-18T04:53:00.035Z,100494.63
2023-03-18T04:55:29.293Z,100498.28
2023-03-18T04:57:56.341Z,100503.38
2023-03-18T05:00:25.219Z,100501.22
2023-03-18T05:02:59.735Z,100493.28
2023-03-18T05:05:26.839Z,100500.25
2023-03-18T05:07:54.156Z,100492.09
2023-03-18T05:10:21.421Z,100502.19
2023-03-18T05:12:48.580Z,100506.94
2023-03-18T05:15:18.185Z,100502.81
2023-03-18T05:17:49.060Z,100505.97
2023-03-18T05:20:15.472Z,100507.69
2023-03-18T05:22:44.568Z,100514.63
2023-03-18T05:25:16.749Z,100509.63
2023-03-18T05:27:43.158Z,100516.09
2023-03-18T05:30:17.759Z,100513.66
2023-03-18T05:32:48.714Z,100514.25
2023-03-18T05:35:16.326Z,100506.97
2023-03-18T05:37:47.624Z,100508.44
2023-03-18T05:40:14.580Z,100519.16
2023-03-18T05:42:55.937Z,100521.69
2023-03-18T05:45:32.122Z,100520.38
2023-03-18T05:47:58.727Z,100528.91
2023-03-18T05:50:31.040Z,100515.13
2023-03-18T05:52:58.803Z,100525.00
2023-03-18T05:55:28.277Z,100526.59
2023-03-18T05:57:56.730Z,100533.53
2023-03-18T06:00:24.633Z,100545.25
2023-03-18T06:02:54.800Z,100544.03
2023-03-18T06:05:22.980Z,100547.06
2023-03-18T06:07:49.339Z,100554.75
2023-03-18T06:10:16.893Z,100542.22
2023-03-18T06:12:46.558Z,100542.81
2023-03-18T06:15:13.634Z,100548.19
2023-03-18T06:17:40.046Z,100548.28
2023-03-18T06:20:10.173Z,100550.47
2023-03-18T06:22:36.913Z,100547.56
2023-03-18T06:25:04.889Z,100558.78
2023-03-18T06:27:31.383Z,100555.84
2023-03-18T06:30:02.651Z,100557.22
2023-03-18T06:32:30.000Z,100563.03
2023-03-18T06:34:56.710Z,100561.34
2023-03-18T06:37:24.446Z,100571.81
2023-03-18T06:39:51.133Z,100574.75
2023-03-18T06:42:17.833Z,100574.00
2023-03-18T06:44:53.070Z,100579.38
2023-03-18T06:47:24.848Z,100586.09
2023-03-18T06:49:56.642Z,100582.91
2023-03-18T06:52:30.184Z,100584.75
2023-03-18T06:55:02.032Z,100588.06
2023-03-18T06:57:28.900Z,100593.66
2023-03-18T06:59:56.061Z,100589.66
2023-03-18T07:02:23.500Z,100594.41
2023-03-18T07:04:50.766Z,100589.78
2023-03-18T07:07:17.293Z,100582.19
2023-03-18T07:09:44.920Z,100596.75
2023-03-18T07:12:14.641Z,100592.72
2023-03-18T07:14:42.067Z,100598.56
2023-03-18T07:17:10.354Z,100593.41
2023-03-18T07:19:39.679Z,100594.91
2023-03-18T07:22:06.124Z,100605.38
2023-03-18T07:24:32.998Z,100606.09
2023-03-18T07:26:59.487Z,100606.50
2023-03-18T07:29:25.893Z,100612.84
2023-03-18T07:31:52.212Z,100615.53
2023-03-18T07:34:19.139Z,100609.66
2023-03-18T07:36:45.668Z,100616.16
2023-03-18T07:39:12.278Z,100616.63
2023-03-18T07:41:38.854Z,100618.47
2023-03-18T07:44:07.524Z,100611.63
2023-03-18T07:46:33.978Z,100617.22
2023-03-18T07:49:00.951Z,100624.28
2023-03-18T07:51:27.388Z,100624.28
2023-03-18T07:53:53.757Z,100629.75
2023-03-18T07:56:20.489Z,100629.25
2023-03-18T07:58:47.818Z,100629.81
2023-03-18T08:01:16.515Z,100632.94
2023-03-18T08:03:43.631Z,100632.84
2023-03-18T08:06:11.216Z,100634.03
2023-03-18T08:08:38.520Z,100632.44
2023-03-18T08:11:05.032Z,100639.88
2023-03-18T08:13:31.787Z,100628.84
2023-03-18T08:15:58.630Z,100642.56
2023-03-18T08:18:25.240Z,100638.69
2023-03-18T08:20:52.862Z,100644.78
2023-03-18T08:23:19.210Z,100645.63
2023-03-18T08:25:49.712Z,100644.97
2023-03-18T08:28:17.646Z,100651.81
2023-03-18T08:30:44.624Z,100656.06
2023-03-18T08:33:11.036Z,100660.66
2023-03-18T08:35:41.541Z,100653.13
2023-03-18T08:38:08.031Z,100659.88
2023-03-18T08:40:34.791Z,100667.22
2023-03-18T08:43:01.450Z,100660.47
2023-03-18T08:45:28.599Z,100666.81
2023-03-18T08:47:55.512Z,100667.94
2023-03-18T08:50:22.618Z,100670.34
2023-03-18T08:52:48.960Z,100679.81
2023-03-18T08:55:16.200Z,100682.38
2023-03-18T08:57:42.856Z,100686.59
2023-03-18T09:00:09.974Z,100677.47
2023-03-18T09:02:36.408Z,100674.22
2023-03-18T09:05:03.209Z,100676.34
2023-03-18T09:07:30.548Z,100667.69
2023-03-18T09:09:56.890Z,100683.44
2023-03-18T09:12:23.286Z,100682.72
2023-03-18T09:14:49.676Z,100682.59
2023-03-18T09:17:16.560Z,100690.75
2023-03-18T09:19:42.894Z,100682.13
2023-03-18T09:22:10.158Z,100677.91
2023-03-18T09:24:36.529Z,100681.19
2023-03-18T09:27:02.959Z,100678.06
2023-03-18T09:29:29.448Z,100679.22
2023-03-18T09:31:56.140Z,100690.31
2023-03-18T09:34:23.587Z,100684.56
2023-03-18T09:36:51.468Z,100691.94
2023-03-18T09:39:19.546Z,100687.75
2023-03-18T09:42:21.170Z,100689.16
2023-03-18T09:44:55.002Z,100692.50
2023-03-18T09:47:51.245Z,100687.84
2023-03-18T09:50:31.854Z,100687.47
2023-03-18T09:53:18.123Z,100686.03
2023-03-18T09:55:51.007Z,100689.22
2023-03-18T09:58:27.127Z,100680.91
2023-03-18T10:01:00.201Z,100692.72
2023-03-18T10:03:37.261Z,100699.56
2023-03-18T10:06:16.279Z,100701.97
2023-03-18T10:09:01.948Z,100698.91
2023-03-18T10:11:35.460Z,100698.34
2023-03-18T10:14:30.690Z,100699.53
2023-03-18T10:17:16.925Z,100691.34
2023-03-18T10:19:48.446Z,100693.91
2023-03-18T10:22:40.471Z,100695.72
2023-03-18T10:25:26.453Z,100686.38
2023-03-18T10:28:24.810Z,100689.31
2023-03-18T10:31:01.372Z,100691.72
2023-03-18T10:33:27.814Z,100695.84
2023-03-18T10:36:08.586Z,100694.81
2023-03-18T10:38:38.841Z,100699.81
2023-03-18T10:41:31.239Z,100686.50
2023-03-18T10:44:01.633Z,100692.88
2023-03-18T10:46:28.335Z,100682.56
2023-03-18T10:49:01.633Z,100680.00
2023-03-18T10:51:36.375Z,100685.03
2023-03-18T10:54:20.977Z,100681.41
2023-03-18T10:56:47.362Z,100682.25
2023-03-18T10:59:18.023Z,100693.13
2023-03-18T11:01:52.253Z,100685.19
2023-03-18T11:04:21.493Z,100683.03
2023-03-18T11:07:07.602Z,100688.59
2023-03-18T11:09:36.947Z,100680.09
2023-03-18T11:12:06.707Z,100674.66
2023-03-18T11:14:37.163Z,100670.81
2023-03-18T11:17:17.793Z,100665.69
2023-03-18T11:19:50.006Z,100662.56
2023-03-18T11:22:21.364Z,100670.97
2023-03-18T11:25:01.884Z,100665.91
2023-03-18T11:27:35.422Z,100663.69
2023-03-18T11:30:16.679Z,100657.19
2023-03-18T11:33:00.860Z,100661.84
2023-03-18T11:35:54.427Z,100659.69
2023-03-18T11:38:28.433Z,100667.78
2023-03-18T11:41:16.889Z,100671.56
2023-03-18T11:44:00.064Z,100663.00
2023-03-18T11:46:30.846Z,100670.88
2023-03-18T11:48:59.141Z,100671.16
2023-03-18T11:51:46.228Z,100669.13
2023-03-18T11:54:47.673Z,100664.47
2023-03-18T11:57:36.897Z,100664.66
2023-03-18T12:00:31.748Z,100668.41
2023-03-18T12:03:43.132Z,100663.66
2023-03-18T12:06:23.581Z,100664.38
2023-03-18T12:09:21.288Z,100662.84
2023-03-18T12:12:08.727Z,100653.47
2023-03-18T12:14:43.541Z,100647.56
2023-03-18T12:17:45.338Z,100653.66
2023-03-18T12:20:29.668Z,100652.81
2023-03-18T12:23:13.160Z,100659.28
2023-03-18T12:26:02.100Z,100652.44
2023-03-18T12:28:52.442Z,100655.53
2023-03-18T12:31:35.093Z,100653.63
2023-03-18T12:34:03.704Z,100663.69
2023-03-18T12:36:57.012Z,100667.69
2023-03-18T12:39:33.794Z,100659.06
2023-03-18T12:42:15.862Z,100658.28
2023-03-18T12:45:10.051Z,100654.13
2023-03-18T12:47:50.452Z,100660.72
2023-03-18T12:50:26.441Z,100639.38
2023-03-18T12:53:16.603Z,100637.63
2023-03-18T12:55:50.287Z,100644.28
2023-03-18T12:58:23.075Z,100641.03
2023-03-18T13:00:58.922Z,100643.25
2023-03-18T13:03:33.264Z,100637.50
2023-03-18T13:06:11.883Z,100633.78
2023-03-18T13:09:10.536Z,100629.97
2023-03-18T13:12:16.074Z,100625.94
2023-03-18T13:14:56.256Z,100623.50
2023-03-18T13:17:39.830Z,100623.28
2023-03-18T13:20:14.950Z,100626.66
2023-03-18T13:22:46.858Z,100626.81
2023-03-18T13:25:40.960Z,100627.72
2023-03-18T13:28:26.109Z,100629.63
2023-03-18T13:30:56.843Z,100625.00
2023-03-18T13:33:45.435Z,100622.84
2023-03-18T13:36:47.073Z,100630.75
2023-03-18T13:39:53.354Z,100628.06
2023-03-18T13:42:25.830Z,100619.22
2023-03-18T13:45:15.624Z,100617.47
2023-03-18T13:47:44.165Z,100620.88
2023-03-18T13:50:19.887Z,100622.75
2023-03-18T13:52:47.760Z,100618.28
2023-03-18T13:55:29.769Z,100625.72
2023-03-18T13:58:06.440Z,100613.16
2023-03-18T14:00:35.003Z,100610.78
2023-03-18T14:03:13.961Z,100614.19
2023-03-18T14:05:42.400Z,100605.19
2023-03-18T14:08:39.652Z,100594.88
2023-03-18T14:11:15.106Z,100589.94
2023-03-18T14:13:41.446Z,100586.13
2023-03-18T14:16:10.769Z,100583.69
2023-03-18T14:18:38.015Z,100585.31
2023-03-18T14:21:24.097Z,100581.69
2023-03-18T14:24:29.914Z,100582.16
2023-03-18T14:26:59.295Z,100579.09
2023-03-18T14:29:31.008Z,100578.50
2023-03-18T14:32:08.193Z,100579.28
2023-03-18T14:34:54.147Z,100576.38
2023-03-18T14:37:26.570Z,100584.00
2023-03-18T14:39:56.298Z,100598.31
2023-03-18T14:42:23.143Z,100611.94
2023-03-18T14:44:54.106Z,100607.97
2023-03-18T14:47:48.558Z,100624.72
2023-03-18T14:50:21.946Z,100623.44
2023-03-18T14:52:56.529Z,100652.72
2023-03-18T14:55:27.763Z,100660.53
2023-03-18T14:57:54.129Z,100657.66
2023-03-18T15:00:21.923Z,100626.63
2023-03-18T15:03:00.656Z,100651.09
2023-03-18T15:05:33.902Z,100645.97
2023-03-18T15:08:00.830Z,100637.44
2023-03-18T15:10:30.774Z,100633.44
2023-03-18T15:13:11.565Z,100619.00
2023-03-18T15:15:38.894Z,100620.19
2023-03-18T15:18:18.993Z,100614.00
2023-03-18T15:20:49.392Z,100608.69
2023-03-18T15:23:21.367Z,100615.69
2023-03-18T15:25:49.185Z,100614.16
2023-03-18T15:28:21.277Z,100626.50
2023-03-18T15:30:54.378Z,100616.59
2023-03-18T15:33:30.152Z,100614.22
2023-03-18T15:36:04.239Z,100631.72
2023-03-18T15:38:31.734Z,100626.50
2023-03-18T15:41:09.982Z,100626.56
2023-03-18T15:43:43.011Z,100627.69
2023-03-18T15:46:25.624Z,100631.94
2023-03-18T15:48:56.494Z,100633.75
2023-03-18T15:51:23.157Z,100629.09
2023-03-18T15:53:53.705Z,100618.56
2023-03-18T15:56:35.369Z,100633.03
2023-03-18T15:59:15.708Z,100618.84
2023-03-18T16:01:42.206Z,100619.25
2023-03-18T16:04:13.812Z,100623.06
2023-03-18T16:06:40.379Z,100625.75
2023-03-18T16:09:24.082Z,100609.31
2023-03-18T16:11:57.155Z,100614.25
2023-03-18T16:14:28.437Z,100608.97
2023-03-18T16:16:54.872Z,100613.31
2023-03-18T16:19:28.196Z,100608.56
2023-03-18T16:21:59.690Z,100614.84
2023-03-18T16:24:26.192Z,100613.78
2023-03-18T16:26:53.990Z,100621.09
2023-03-18T16:29:36.611Z,100626.13
2023-03-18T16:32:03.656Z,100614.69
2023-03-18T16:34:30.241Z,100615.63
2023-03-18T16:36:56.982Z,100615.75
2023-03-18T16:39:27.155Z,100619.56
2023-03-18T16:41:53.589Z,100619.56
2023-03-18T16:44:23.293Z,100621.47
2023-03-18T16:46:53.686Z,100613.31
2023-03-18T16:49:22.906Z,100616.88
2023-03-18T16:51:51.910Z,100611.59
2023-03-18T16:54:20.994Z,100619.56
2023-03-18T16:56:49.014Z,100624.09
2023-03-18T16:59:18.578Z,100629.44
2023-03-18T17:01:45.861Z,100627.97
2023-03-18T17:04:24.493Z,100618.84
2023-03-18T17:06:51.949Z,100618.41
2023-03-18T17:09:19.273Z,100615.97
2023-03-18T17:11:48.860Z,100628.81
2023-03-18T17:14:33.682Z,100628.13
2023-03-18T17:17:03.762Z,100620.69
2023-03-18T17:19:31.003Z,100626.69
2023-03-18T17:21:57.406Z,100621.34
2023-03-18T17:24:23.815Z,100622.94
2023-03-18T17:26:51.447Z,100624.19
2023-03-18T17:29:23.884Z,100625.19
2023-03-18T17:31:51.902Z,100630.72
2023-03-18T17:34:18.420Z,100625.84
2023-03-18T17:36:44.793Z,100625.00
2023-03-18T17:39:11.157Z,100627.69
2023-03-18T17:41:37.876Z,100625.09
2023-03-18T17:44:22.314Z,100634.53
2023-03-18T17:46:48.642Z,100639.53
2023-03-18T17:49:14.947Z,100631.00
2023-03-18T17:51:41.538Z,100627.00
2023-03-18T17:54:13.218Z,100630.91
2023-03-18T17:56:40.447Z,100636.38
2023-03-18T17:59:14.796Z,100630.66
2023-03-18T18:01:42.373Z,100647.28
2023-03-18T18:04:14.845Z,100642.84
2023-03-18T18:06:41.235Z,100639.47
2023-03-18T18:09:13.109Z,100646.78
2023-03-18T18:11:45.422Z,100657.75
2023-03-18T18:14:19.851Z,100664.22
2023-03-18T18:16:47.619Z,100659.44
2023-03-18T18:19:14.765Z,100653.31
2023-03-18T18:21:42.886Z,100663.06
2023-03-18T18:24:15.057Z,100653.88
2023-03-18T18:26:41.610Z,100653.03
2023-03-18T18:29:14.328Z,100659.00
2023-03-18T18:31:40.713Z,100649.06
2023-03-18T18:34:07.369Z,100651.00
2023-03-18T18:36:33.679Z,100655.03
2023-03-18T18:39:00.031Z,100660.13
2023-03-18T18:41:27.144Z,100660.34
2023-03-18T18:43:53.454Z,100662.28
2023-03-18T18:46:21.207Z,100672.59
2023-03-18T18:48:48.607Z,100669.31
2023-03-18T18:51:18.361Z,100669.41
2023-03-18T18:53:46.252Z,100670.38
2023-03-18T18:56:25.175Z,100668.72
2023-03-18T18:58:52.133Z,100664.53
2023-03-18T19:01:19.768Z,100669.50
2023-03-18T19:03:46.769Z,100667.91
2023-03-18T19:06:25.797Z,100666.31
2023-03-18T19:08:57.515Z,100664.69
2023-03-18T19:11:25.034Z,100671.25
2023-03-18T19:13:52.777Z,100676.09
2023-03-18T19:16:27.959Z,100675.19
2023-03-18T19:18:54.828Z,100671.81
2023-03-18T19:21:21.913Z,100676.50
2023-03-18T19:23:48.728Z,100671.34
2023-03-18T19:26:18.527Z,100682.94
2023-03-18T19:28:57.770Z,100681.84
2023-03-18T19:31:27.263Z,100690.75
2023-03-18T19:33:53.860Z,100682.06
2023-03-18T19:36:25.914Z,100686.38
2023-03-18T19:38:58.441Z,100684.31
2023-03-18T19:41:25.341Z,100689.78
2023-03-18T19:43:52.061Z,100687.31
2023-03-18T19:46:27.657Z,100684.66
2023-03-18T19:48:53.989Z,100687.63
2023-03-18T19:51:20.297Z,100699.50
2023-03-18T19:53:47.416Z,100691.56
2023-03-18T19:56:24.143Z,100693.38
2023-03-18T19:58:52.754Z,100694.06
2023-03-18T20:01:21.752Z,100688.38
2023-03-18T20:03:58.236Z,100697.66
2023-03-18T20:06:25.665Z,100695.97
2023-03-18T20:08:52.263Z,100703.31
2023-03-18T20:11:20.862Z,100695.75
2023-03-18T20:13:47.877Z,100708.75
2023-03-18T20:16:16.221Z,100702.00
2023-03-18T20:18:42.773Z,100702.09
2023-03-18T20:21:19.255Z,100701.47
2023-03-18T20:23:45.945Z,100704.97
2023-03-18T20:26:12.291Z,100703.63
2023-03-18T20:28:43.072Z,100698.94
2023-03-18T20:31:11.406Z,100714.44
2023-03-18T20:33:38.082Z,100707.19
2023-03-18T20:36:06.057Z,100711.25
2023-03-18T20:38:37.348Z,100706.66
2023-03-18T20:41:05.225Z,100713.53
2023-03-18T20:43:32.002Z,100704.84
2023-03-18T20:46:00.241Z,100712.84
2023-03-18T20:48:27.731Z,100717.69
2023-03-18T20:50:55.175Z,100708.59
2023-03-18T20:53:28.017Z,100725.47
2023-03-18T20:55:55.639Z,100722.31
2023-03-18T20:58:24.947Z,100723.38
2023-03-18T21:00:52.862Z,100732.47
2023-03-18T21:03:28.186Z,100728.91
2023-03-18T21:05:58.649Z,100726.25
2023-03-18T21:08:26.556Z,100724.22
2023-03-18T21:10:53.966Z,100727.34
2023-03-18T21:13:31.016Z,100731.09
2023-03-18T21:15:59.060Z,100732.69
2023-03-18T21:18:26.467Z,100731.19
2023-03-18T21:20:53.778Z,100729.56
2023-03-18T21:23:25.488Z,100722.41
2023-03-18T21:25:53.160Z,100726.38
2023-03-18T21:28:21.969Z,100725.38
2023-03-18T21:30:50.651Z,100729.66
2023-03-18T21:33:19.982Z,100728.25
2023-03-18T21:35:46.534Z,100731.44
2023-03-18T21:38:12.919Z,100726.38
2023-03-18T21:40:39.467Z,100734.00
2023-03-18T21:43:32.234Z,100728.00
2023-03-18T21:45:59.086Z,100716.97
2023-03-18T21:48:25.701Z,100717.59
2023-03-18T21:50:52.165Z,100713.41
2023-03-18T21:53:20.735Z,100716.06
2023-03-18T21:55:47.746Z,100709.88
2023-03-18T21:58:16.599Z,100717.34
2023-03-18T22:00:44.938Z,100721.16
2023-03-18T22:03:15.542Z,100730.16
2023-03-18T22:05:41.918Z,100721.34
2023-03-18T22:08:08.759Z,100723.72
2023-03-18T22:10:35.251Z,100727.22
2023-03-18T22:13:01.594Z,100725.63
2023-03-18T22:15:35.744Z,100724.56
2023-03-18T22:18:02.424Z,100727.22
2023-03-18T22:20:29.458Z,100720.72
2023-03-18T22:22:56.279Z,100719.81
2023-03-18T22:25:30.155Z,100725.72
2023-03-18T22:28:00.751Z,100729.94
2023-03-18T22:30:29.184Z,100731.56
2023-03-18T22:32:56.959Z,100723.34
2023-03-18T22:35:26.191Z,100726.28
2023-03-18T22:37:53.216Z,100727.03
2023-03-18T22:40:31.490Z,100724.34
2023-03-18T22:43:01.422Z,100723.84
2023-03-18T22:45:32.719Z,100719.94
2023-03-18T22:48:02.166Z,100721.41
2023-03-18T22:50:31.729Z,100721.31
2023-03-18T22:53:01.367Z,100714.28
2023-03-18T22:55:38.782Z,100717.81
2023-03-18T22:58:07.473Z,100724.28
2023-03-18T23:00:39.228Z,100728.13
2023-03-18T23:03:21.319Z,100724.91
2023-03-18T23:05:50.301Z,100729.81
2023-03-18T23:08:17.083Z,100727.88
2023-03-18T23:10:44.290Z,100722.09
2023-03-18T23:13:16.200Z,100724.47
2023-03-18T23:15:43.563Z,100714.22
2023-03-18T23:18:17.266Z,100715.34
2023-03-18T23:20:45.834Z,100717.59
2023-03-18T23:23:13.599Z,100712.91
2023-03-18T23:25:41.690Z,100714.59
2023-03-18T23:28:08.492Z,100717.88
2023-03-18T23:30:36.547Z,100713.06
2023-03-18T23:33:02.998Z,100719.75
2023-03-18T23:35:29.569Z,100713.97
2023-03-18T23:37:56.150Z,100713.97
2023-03-18T23:40:22.611Z,100727.88
2023-03-18T23:42:48.916Z,100730.25
2023-03-18T23:45:15.536Z,100727.78
2023-03-18T23:47:41.978Z,100729.94
2023-03-18T23:50:09.582Z,100735.41
2023-03-18T23:52:36.799Z,100736.34
2023-03-18T23:55:04.122Z,100728.13
2023-03-18T23:57:30.549Z,100722.59
2023-03-18T23:59:56.867Z,100725.34
